Flight Track Log - Related Links

Times and Time Zones

All times are in EDT time to prevent confusion due to time zone crossing. See the SWA259 flight status page for this flight to view local times or setup timezone preferences in your user account.

Time Position Orientation Groundspeed Altitude Reporting Facility
EDT Latitude Longitude Course Direction KTS MPH feet Rate Location/Type
Sun 03:05:28 PM 29.9803 -90.2536 221° Southwest 151 174 500  Level Houston Center
Sun 03:06:41 PM 29.9378 -90.2961 221° Southwest 224 258 2,700 1,590 Climbing Houston Center
Sun 03:06:51 PM 29.9392 -90.2964 350° North 247 284 2,700 3,134 Level Houston Center
Sun 03:07:48 PM 29.9631 -90.3817 288° West 286 329 6,200 3,661 Climbing Houston Center
Sun 03:08:49 PM 30.0133 -90.4517 310° West 304 350 9,900 3,046 Climbing Houston Center
Sun 03:09:58 PM 30.0928 -90.5261 321° Northwest 320 368 12,800 2,611 Climbing Houston Center
Sun 03:11:00 PM 30.1703 -90.6019 320° Northwest 357 411 15,600 2,468 Climbing Houston Center
Sun 03:12:02 PM 30.2511 -90.6783 321° Northwest 372 428 17,900 2,226 Climbing Houston Center
Sun 03:13:04 PM 30.3403 -90.7606 321° Northwest 402 463 20,200 2,468 Climbing Houston Center
Sun 03:14:06 PM 30.4506 -90.8636 321° Northwest 420 483 23,000 1,344 Climbing Houston Center
Sun 03:15:09 PM 30.5458 -90.9508 322° Northwest 432 497 23,000  Level Houston Center
Sun 03:16:11 PM 30.6392 -91.0372 321° Northwest 431 496 23,000  Level Houston Center
Sun 03:17:13 PM 30.7403 -91.1325 321° Northwest 431 496 23,000  Level Houston Center
Sun 03:18:15 PM 30.8275 -91.2250 318° Northwest 430 495 23,000 435 Level Houston Center
Sun 03:19:17 PM 30.8675 -91.3556 290° West 425 489 23,900 1,355 Climbing Houston Center
Sun 03:20:19 PM 30.9131 -91.4858 292° West 430 495 25,800 1,790 Climbing Houston Center
Sun 03:21:21 PM 30.9589 -91.6208 292° West 445 512 27,600 1,584 Climbing Houston Center
Sun 03:22:24 PM 31.0061 -91.7589 292° West 455 524 29,100 1,536 Climbing Houston Center
Sun 03:23:26 PM 31.0639 -91.9289 292° West 465 535 30,800 1,355 Climbing Houston Center
Sun 03:24:28 PM 31.1081 -92.0633 291° West 485 558 31,900 1,452 Climbing Houston Center
Sun 03:25:30 PM 31.1750 -92.1950 301° West 480 552 33,800 1,839 Climbing Houston Center
Sun 03:26:32 PM 31.2967 -92.3178 319° Northwest 483 556 35,700 1,065 Climbing Houston Center
Sun 03:27:34 PM 31.4003 -92.4169 321° Northwest 483 556 36,000 484 Climbing Houston Center
Sun 03:28:36 PM 31.5022 -92.5189 320° Northwest 483 556 36,700 1,008 Climbing Houston Center
Sun 03:29:39 PM 31.6042 -92.6178 320° Northwest 479 551 38,100 1,056 Climbing Houston Center
Sun 03:30:41 PM 31.6783 -92.7431 305° West 477 549 38,900 919 Climbing Houston Center
Sun 03:31:43 PM 31.7011 -92.9222 279° West 469 540 40,000 532 Climbing Houston Center
Sun 03:32:45 PM 31.7103 -93.0744 274° West 467 537 40,000  Level Houston Center
Sun 03:33:47 PM 31.7164 -93.2253 273° West 467 537 40,000  Level Houston Center
Sun 03:34:49 PM 31.7244 -93.3800 274° West 467 537 40,000  Level Houston Center
Sun 03:35:51 PM 31.7431 -93.5311 278° West 467 537 40,000  Level Houston Center
Sun 03:36:54 PM 31.7900 -93.6825 290° West 470 541 40,000  Level Houston Center
Sun 03:37:56 PM 31.8400 -93.8500 289° West 471 542 40,000  Level Houston Center
Sun 03:38:45 PM 31.8767 -93.9683 290° West 475 547 40,000  Level Fort Center
Sun 03:39:47 PM 31.9231 -94.1208 290° West 476 548 40,000  Level Fort Center
Sun 03:40:49 PM 31.9664 -94.2678 289° West 476 548 40,000  Level Fort Center
Sun 03:41:51 PM 32.0111 -94.4153 290° West 479 551 40,000 -528 Level Fort Center
Sun 03:42:54 PM 32.0544 -94.5622 289° West 479 551 38,900 -2,016 Descending Fort Center
Sun 03:43:56 PM 32.1047 -94.7342 289° West 469 540 35,800 -3,000 Descending Fort Center
Sun 03:44:58 PM 32.1478 -94.8783 289° West 468 539 32,700 -2,758 Descending Fort Center
Sun 03:46:00 PM 32.1897 -95.0258 289° West 474 545 30,100 -2,419 Descending Fort Center
Sun 03:47:02 PM 32.2347 -95.1783 289° West 464 534 27,700 -2,208 Descending Fort Center
Sun 03:48:05 PM 32.2739 -95.3153 289° West 441 507 25,500 -2,112 Descending Fort Center
Sun 03:49:07 PM 32.3125 -95.4464 289° West 426 490 23,300 -2,081 Descending Fort Center
Sun 03:50:09 PM 32.3486 -95.5744 288° West 415 478 21,200 -2,032 Descending Fort Center
Sun 03:51:11 PM 32.3825 -95.6969 288° West 394 453 19,100 -2,129 Descending Fort Center
Sun 03:52:13 PM 32.4219 -95.8364 289° West 371 427 16,800 -2,081 Descending Fort Center
Sun 03:53:15 PM 32.4558 -95.9506 289° West 362 417 14,800 -1,984 Descending Fort Center
Sun 03:54:17 PM 32.4892 -96.0681 289° West 353 406 12,700 -1,920 Descending Fort Center
Sun 03:55:20 PM 32.5186 -96.1742 288° West 342 394 10,800 -1,440 Descending Fort Center
Sun 03:56:22 PM 32.5492 -96.2836 288° West 321 369 9,700 -919 Descending Fort Center
Sun 03:57:24 PM 32.5844 -96.3708 296° West 303 349 8,900 -919 Descending Fort Center
Sun 03:58:26 PM 32.6350 -96.4572 305° West 295 339 7,800 -1,065 Descending Fort Center
Sun 03:59:28 PM 32.6817 -96.5350 305° West 293 337 6,700 -1,065 Descending Fort Center
Sun 04:00:30 PM 32.7383 -96.5989 317° Northwest 280 322 5,600 -816 Descending Fort Center
Sun 04:01:33 PM 32.7972 -96.6642 317° Northwest 270 311 5,000 -336 Descending Fort Center
Sun 04:02:35 PM 32.8464 -96.7200 316° Northwest 249 287 4,900 -435 Descending Fort Center
Sun 04:03:37 PM 32.8939 -96.7714 318° Northwest 215 247 4,100 -919 Descending Fort Center
Sun 04:04:39 PM 32.9294 -96.8258 308° West 215 247 3,000 -1,008 Descending Fort Center
Sun 04:05:42 PM 32.9333 -96.8967 274° West 202 232 2,000 -768 Descending Fort Center
Sun 04:06:44 PM 32.8931 -96.8997 184° South 160 184 1,400 -629 Descending Fort Center
Sun 04:07:46 PM 32.8672 -96.8683 134° Southeast 147 169 700 -677 Descending Fort Center

Login

Don't have an account? Register now (free) for customized features, flight alerts, and more!